createdAt,value
2018-02-24T00:00:46.850Z,40.78
2018-02-24T00:03:14.983Z,44.65
2018-02-24T00:05:43.894Z,54.92
2018-02-24T00:08:12.065Z,49.92
2018-02-24T00:10:40.189Z,53.25
2018-02-24T00:13:08.372Z,53.55
2018-02-24T00:15:36.507Z,55.20
2018-02-24T00:18:04.734Z,45.78
2018-02-24T00:20:33.657Z,39.75
2018-02-24T00:23:01.799Z,42.75
2018-02-24T00:25:30.709Z,42.38
2018-02-24T00:27:58.829Z,43.87
2018-02-24T00:30:26.967Z,39.15
2018-02-24T00:32:55.105Z,44.45
2018-02-24T00:35:24.040Z,38.03
2018-02-24T00:37:52.193Z,42.35
2018-02-24T00:40:20.368Z,39.58
2018-02-24T00:42:48.484Z,41.15
2018-02-24T00:45:16.672Z,37.72
2018-02-24T00:47:45.584Z,42.60
2018-02-24T00:50:13.731Z,44.03
2018-02-24T00:52:41.869Z,38.83
2018-02-24T00:55:10.029Z,36.42
2018-02-24T00:57:38.192Z,40.22
2018-02-24T01:00:06.320Z,40.15
2018-02-24T01:02:35.247Z,45.17
2018-02-24T01:05:03.389Z,41.00
2018-02-24T01:07:32.317Z,38.83
2018-02-24T01:10:00.438Z,38.22
2018-02-24T01:12:29.370Z,38.17
2018-02-24T01:14:57.498Z,43.38
2018-02-24T01:17:25.621Z,48.05
2018-02-24T01:19:53.795Z,39.85
2018-02-24T01:22:21.930Z,43.95
2018-02-24T01:24:50.076Z,39.83
2018-02-24T01:27:18.224Z,41.58
2018-02-24T01:29:46.472Z,41.83
2018-02-24T01:32:14.589Z,42.60
2018-02-24T01:34:42.731Z,42.10
2018-02-24T01:37:10.858Z,41.10
2018-02-24T01:39:39.060Z,41.72
2018-02-24T01:42:07.181Z,42.80
2018-02-24T01:44:35.407Z,46.17
2018-02-24T01:47:03.520Z,43.63
2018-02-24T01:49:31.656Z,50.80
2018-02-24T01:51:59.814Z,46.45
2018-02-24T01:54:27.917Z,45.15
2018-02-24T01:56:56.067Z,43.95
2018-02-24T01:59:24.203Z,46.25
2018-02-24T02:01:53.121Z,44.20
2018-02-24T02:04:21.267Z,46.15
2018-02-24T02:06:50.168Z,40.05
2018-02-24T02:09:18.356Z,43.80
2018-02-24T02:11:46.525Z,42.42
2018-02-24T02:14:15.404Z,56.00
2018-02-24T02:16:43.552Z,45.42
2018-02-24T02:19:12.473Z,44.28
2018-02-24T02:21:41.355Z,50.92
2018-02-24T02:24:09.536Z,42.75
2018-02-24T02:26:37.710Z,44.17
2018-02-24T02:29:06.570Z,50.35
2018-02-24T02:31:35.488Z,44.10
2018-02-24T02:34:03.654Z,52.55
2018-02-24T02:36:31.761Z,47.03
2018-02-24T02:38:59.906Z,45.15
2018-02-24T02:41:28.020Z,43.95
2018-02-24T02:43:56.211Z,41.70
2018-02-24T02:46:25.207Z,46.08
2018-02-24T02:48:54.124Z,43.65
2018-02-24T02:51:22.266Z,48.33
2018-02-24T02:53:51.197Z,51.78
2018-02-24T02:56:19.301Z,39.15
2018-02-24T02:58:47.458Z,43.08
2018-02-24T03:01:15.600Z,38.97
2018-02-24T03:03:43.724Z,47.10
2018-02-24T03:06:12.646Z,49.22
2018-02-24T03:08:40.839Z,53.53
2018-02-24T03:11:08.977Z,50.45
2018-02-24T03:13:37.122Z,49.67
2018-02-24T03:16:05.354Z,49.03
2018-02-24T03:18:33.524Z,43.20
2018-02-24T03:21:01.621Z,38.85
2018-02-24T03:23:29.757Z,44.85
2018-02-24T03:25:57.896Z,41.55
2018-02-24T03:28:26.823Z,44.35
2018-02-24T03:30:54.918Z,39.97
2018-02-24T03:33:23.064Z,36.38
2018-02-24T03:35:51.196Z,40.95
2018-02-24T03:38:20.088Z,43.80
2018-02-24T03:40:48.983Z,48.70
2018-02-24T03:43:17.880Z,45.65
2018-02-24T03:45:46.482Z,40.33
2018-02-24T03:48:14.604Z,41.97
2018-02-24T03:50:42.737Z,48.35
2018-02-24T03:53:10.899Z,53.42
2018-02-24T03:55:39.762Z,46.60
2018-02-24T03:58:07.894Z,46.37
2018-02-24T04:00:36.133Z,53.58
2018-02-24T04:03:05.010Z,44.80
2018-02-24T04:05:33.124Z,52.78
2018-02-24T04:08:01.276Z,49.30
2018-02-24T04:10:29.406Z,51.45
2018-02-24T04:12:58.325Z,45.50
2018-02-24T04:15:26.471Z,42.47
2018-02-24T04:17:55.488Z,48.03
2018-02-24T04:20:24.364Z,45.80
2018-02-24T04:22:52.483Z,44.30
2018-02-24T04:25:20.626Z,45.45
2018-02-24T04:27:48.774Z,43.35
2018-02-24T04:30:16.900Z,45.95
2018-02-24T04:32:45.136Z,48.30
2018-02-24T04:35:14.022Z,44.42
2018-02-24T04:37:42.195Z,47.47
2018-02-24T04:40:10.324Z,44.83
2018-02-24T04:42:39.261Z,43.60
2018-02-24T04:45:07.405Z,43.85
2018-02-24T04:47:35.548Z,57.53
2018-02-24T04:50:03.674Z,45.97
2018-02-24T04:52:31.802Z,52.53
2018-02-24T04:55:00.709Z,47.58
2018-02-24T04:57:29.605Z,47.50
2018-02-24T04:59:57.734Z,44.17
2018-02-24T05:02:25.873Z,47.97
2018-02-24T05:04:54.156Z,51.22
2018-02-24T05:07:22.269Z,48.92
2018-02-24T05:09:51.208Z,44.88
2018-02-24T05:12:19.328Z,42.72
2018-02-24T05:14:47.478Z,47.00
2018-02-24T05:17:15.613Z,49.33
2018-02-24T05:19:43.730Z,49.85
2018-02-24T05:22:11.865Z,48.47
2018-02-24T05:24:40.010Z,47.40
2018-02-24T05:27:08.211Z,43.90
2018-02-24T05:29:36.309Z,45.50
2018-02-24T05:32:04.454Z,50.47
2018-02-24T05:34:32.576Z,51.97
2018-02-24T05:37:01.510Z,51.53
2018-02-24T05:39:29.673Z,50.72
2018-02-24T05:41:57.961Z,50.75
2018-02-24T05:44:26.128Z,48.22
2018-02-24T05:46:54.232Z,49.78
2018-02-24T05:49:22.386Z,50.42
2018-02-24T05:51:50.534Z,45.00
2018-02-24T05:54:18.706Z,54.05
2018-02-24T05:56:46.888Z,46.25
2018-02-24T05:59:14.981Z,49.05
2018-02-24T06:01:43.125Z,47.30
2018-02-24T06:04:11.254Z,42.58
2018-02-24T06:06:40.138Z,46.10
2018-02-24T06:09:09.176Z,47.47
2018-02-24T06:11:37.345Z,44.10
2018-02-24T06:14:05.489Z,45.75
2018-02-24T06:16:34.368Z,44.13
2018-02-24T06:19:03.296Z,49.38
2018-02-24T06:21:31.408Z,51.30
2018-02-24T06:23:59.573Z,53.22
2018-02-24T06:26:27.713Z,53.35
2018-02-24T06:28:55.880Z,41.58
2018-02-24T06:31:24.775Z,42.38
2018-02-24T06:33:52.902Z,53.10
2018-02-24T06:36:21.833Z,47.75
2018-02-24T06:38:49.959Z,47.38
2018-02-24T06:41:18.132Z,44.97
2018-02-24T06:43:47.067Z,40.20
2018-02-24T06:46:15.170Z,46.13
2018-02-24T06:48:43.342Z,42.17
2018-02-24T06:51:11.449Z,39.75
2018-02-24T06:53:39.609Z,40.53
2018-02-24T06:56:07.825Z,42.08
2018-02-24T06:58:36.712Z,49.97
2018-02-24T07:01:04.850Z,40.40
2018-02-24T07:03:33.773Z,44.25
2018-02-24T07:06:01.944Z,39.90
2018-02-24T07:08:30.069Z,42.70
2018-02-24T07:10:59.001Z,41.03
2018-02-24T07:13:27.153Z,40.50
2018-02-24T07:15:55.316Z,43.85
2018-02-24T07:18:24.249Z,45.78
2018-02-24T07:20:53.118Z,38.00
2018-02-24T07:23:22.065Z,45.15
2018-02-24T07:25:50.222Z,40.55
2018-02-24T07:28:18.470Z,48.33
2018-02-24T07:30:46.568Z,46.00
2018-02-24T07:33:14.703Z,45.33
2018-02-24T07:35:42.875Z,50.38
2018-02-24T07:38:11.008Z,36.55
2018-02-24T07:40:39.941Z,41.22
2018-02-24T07:43:08.083Z,43.20
2018-02-24T07:45:36.957Z,39.92
2018-02-24T07:48:05.103Z,44.13
2018-02-24T07:50:33.216Z,47.45
2018-02-24T07:53:02.233Z,42.17
2018-02-24T07:55:30.402Z,42.70
2018-02-24T07:57:58.579Z,44.05
2018-02-24T08:00:26.697Z,43.03
2018-02-24T08:02:54.872Z,50.30
2018-02-24T08:05:23.045Z,55.30
2018-02-24T08:07:51.187Z,44.67
2018-02-24T08:10:19.300Z,42.62
2018-02-24T08:12:48.222Z,37.85
2018-02-24T08:15:16.496Z,40.55
2018-02-24T08:17:45.417Z,39.05
2018-02-24T08:20:13.559Z,46.30
2018-02-24T08:22:41.838Z,45.25
2018-02-24T08:25:09.947Z,39.08
2018-02-24T08:27:38.092Z,33.85
2018-02-24T08:30:06.234Z,33.20
2018-02-24T08:32:34.417Z,37.40
2018-02-24T08:35:02.590Z,40.33
2018-02-24T08:37:30.776Z,34.38
2018-02-24T08:39:58.906Z,39.47
2018-02-24T08:42:27.862Z,38.83
2018-02-24T08:44:56.017Z,36.42
2018-02-24T08:47:24.239Z,38.67
2018-02-24T08:49:53.176Z,37.97
2018-02-24T08:55:31.542Z,36.65
2018-02-24T08:58:00.618Z,35.05
2018-02-24T09:00:29.480Z,38.25
2018-02-24T09:02:57.613Z,37.15
2018-02-24T09:05:25.767Z,39.95
2018-02-24T09:07:53.965Z,32.83
2018-02-24T09:10:22.134Z,36.72
2018-02-24T09:12:50.285Z,40.78
2018-02-24T09:15:19.928Z,33.65
2018-02-24T09:17:48.066Z,36.65
2018-02-24T09:20:16.233Z,36.30
2018-02-24T09:22:44.405Z,34.28
2018-02-24T09:25:12.593Z,37.85
2018-02-24T09:27:40.726Z,31.65
2018-02-24T09:30:08.883Z,35.28
2018-02-24T09:32:37.052Z,37.58
2018-02-24T09:35:05.235Z,38.45
2018-02-24T09:37:33.393Z,38.38
2018-02-24T09:40:01.700Z,32.20
2018-02-24T09:42:29.955Z,35.85
2018-02-24T09:44:58.116Z,38.83
2018-02-24T09:47:26.250Z,36.42
2018-02-24T09:49:55.188Z,32.17
2018-02-24T09:52:23.402Z,33.10
2018-02-24T09:54:51.597Z,37.33
2018-02-24T09:57:20.502Z,31.85
2018-02-24T09:59:48.643Z,28.70
2018-02-24T10:02:17.584Z,33.42
2018-02-24T10:04:45.719Z,33.13
2018-02-24T10:07:13.913Z,36.30
2018-02-24T10:09:42.069Z,33.85
2018-02-24T10:12:10.194Z,36.28
2018-02-24T10:14:38.491Z,32.03
2018-02-24T10:17:06.661Z,33.00
2018-02-24T10:19:34.882Z,27.15
2018-02-24T10:22:03.780Z,28.95
2018-02-24T10:24:31.927Z,34.33
2018-02-24T10:27:00.081Z,31.50
2018-02-24T10:29:28.994Z,31.12
2018-02-24T10:31:57.172Z,28.98
2018-02-24T10:34:25.550Z,32.63
2018-02-24T10:36:53.706Z,28.12
2018-02-24T10:39:21.993Z,33.45
2018-02-24T10:41:50.216Z,30.90
2018-02-24T10:44:18.374Z,22.87
2018-02-24T10:46:46.510Z,33.13
2018-02-24T10:49:15.387Z,24.08
2018-02-24T10:51:43.582Z,24.23
2018-02-24T10:54:11.716Z,30.58
2018-02-24T10:56:40.710Z,26.95
2018-02-24T10:59:08.910Z,27.42
2018-02-24T11:01:37.171Z,30.23
2018-02-24T11:04:05.316Z,25.83
2018-02-24T11:06:33.466Z,31.10
2018-02-24T11:09:01.701Z,25.58
2018-02-24T11:11:29.824Z,31.52
2018-02-24T11:13:58.745Z,34.72
2018-02-24T11:16:26.876Z,26.90
2018-02-24T11:18:56.514Z,24.27
2018-02-24T11:21:25.410Z,33.95
2018-02-24T11:23:53.569Z,28.25
2018-02-24T11:26:21.714Z,31.25
2018-02-24T11:28:49.942Z,26.90
2018-02-24T11:31:18.160Z,24.70
2018-02-24T11:33:46.251Z,22.75
2018-02-24T11:36:15.272Z,24.85
2018-02-24T11:38:43.445Z,22.02
2018-02-24T11:41:11.595Z,24.20
2018-02-24T11:43:39.782Z,25.42
2018-02-24T11:46:08.672Z,26.15
2018-02-24T11:48:36.835Z,21.75
2018-02-24T11:51:04.988Z,22.65
2018-02-24T11:53:33.198Z,22.50
2018-02-24T11:56:01.363Z,24.92
2018-02-24T11:58:31.001Z,22.20
2018-02-24T12:00:59.202Z,21.12
2018-02-24T12:03:27.364Z,20.58
2018-02-24T12:05:55.462Z,20.73
2018-02-24T12:08:24.367Z,20.20
2018-02-24T12:10:52.545Z,18.73
2018-02-24T12:13:20.768Z,19.40
2018-02-24T12:15:48.931Z,20.73
2018-02-24T12:18:17.092Z,23.52
2018-02-24T12:20:45.330Z,21.33
2018-02-24T12:23:13.492Z,20.52
2018-02-24T12:25:42.433Z,18.77
2018-02-24T12:28:10.591Z,17.62
2018-02-24T12:30:38.709Z,18.07
2018-02-24T12:33:07.679Z,19.07
2018-02-24T12:35:35.796Z,19.40
2018-02-24T12:38:03.957Z,16.70
2018-02-24T12:40:32.868Z,17.40
2018-02-24T12:43:01.020Z,21.03
2018-02-24T12:45:29.895Z,16.67
2018-02-24T12:47:58.140Z,17.63
2018-02-24T12:50:26.386Z,17.40
2018-02-24T12:52:54.527Z,13.83
2018-02-24T12:55:23.553Z,18.97
2018-02-24T12:57:51.681Z,15.30
2018-02-24T13:00:19.861Z,16.83
2018-02-24T13:02:48.018Z,15.40
2018-02-24T13:05:16.188Z,18.97
2018-02-24T13:07:44.339Z,17.97
2018-02-24T13:10:12.514Z,17.12
2018-02-24T13:12:40.761Z,14.90
2018-02-24T13:15:08.931Z,15.48
2018-02-24T13:17:37.109Z,14.43
2018-02-24T13:20:05.232Z,19.00
2018-02-24T13:22:34.183Z,15.23
2018-02-24T13:25:02.401Z,17.12
2018-02-24T13:27:30.581Z,14.13
2018-02-24T13:29:58.724Z,16.10
2018-02-24T13:32:26.884Z,17.17
2018-02-24T13:34:55.037Z,15.77
2018-02-24T13:37:23.158Z,22.45
2018-02-24T13:39:51.344Z,17.17
2018-02-24T13:42:20.284Z,14.87
2018-02-24T13:44:48.436Z,21.27
2018-02-24T13:47:17.350Z,16.80
2018-02-24T13:49:45.484Z,18.27
2018-02-24T13:52:13.645Z,17.08
2018-02-24T13:54:41.784Z,17.37
2018-02-24T13:57:09.949Z,16.12
2018-02-24T13:59:38.089Z,17.92
2018-02-24T14:02:06.205Z,18.05
2018-02-24T14:04:34.380Z,19.55
2018-02-24T14:07:02.551Z,16.10
2018-02-24T14:09:30.700Z,21.45
2018-02-24T14:11:58.909Z,18.52
2018-02-24T14:14:27.041Z,18.92
2018-02-24T14:16:55.222Z,19.27
2018-02-24T14:19:23.364Z,17.08
2018-02-24T14:21:51.510Z,21.33
2018-02-24T14:24:20.404Z,20.48
2018-02-24T14:26:48.580Z,17.67
2018-02-24T14:29:17.495Z,18.08
2018-02-24T14:31:45.717Z,19.33
2018-02-24T14:34:14.645Z,19.27
2018-02-24T14:36:42.786Z,20.77
2018-02-24T14:39:10.960Z,16.48
2018-02-24T14:41:39.863Z,17.83
2018-02-24T14:44:08.027Z,18.90
2018-02-24T14:46:36.974Z,15.48
2018-02-24T14:49:05.160Z,21.80
2018-02-24T14:51:33.316Z,23.77
2018-02-24T14:54:01.471Z,20.05
2018-02-24T14:56:29.598Z,19.05
2018-02-24T14:58:58.537Z,18.40
2018-02-24T15:01:26.671Z,17.75
2018-02-24T15:03:55.592Z,24.15
2018-02-24T15:06:23.756Z,19.37
2018-02-24T15:08:52.452Z,17.48
2018-02-24T15:11:20.626Z,22.33
2018-02-24T15:13:48.767Z,21.00
2018-02-24T15:16:16.941Z,22.40
2018-02-24T15:18:45.844Z,20.80
2018-02-24T15:21:14.016Z,19.48
2018-02-24T15:23:42.145Z,21.73
2018-02-24T15:26:10.289Z,21.10
2018-02-24T15:28:38.439Z,22.00
2018-02-24T15:31:06.594Z,20.27
2018-02-24T15:33:34.786Z,22.35
2018-02-24T15:36:02.957Z,17.52
2018-02-24T15:38:31.102Z,19.87
2018-02-24T15:40:59.309Z,20.00
2018-02-24T15:43:27.469Z,20.95
2018-02-24T15:45:55.636Z,19.95
2018-02-24T15:48:23.825Z,19.87
2018-02-24T15:50:51.962Z,21.02
2018-02-24T15:53:20.152Z,18.45
2018-02-24T15:55:48.290Z,19.80
2018-02-24T15:58:17.208Z,19.65
2018-02-24T16:00:45.322Z,17.42
2018-02-24T16:03:13.492Z,20.77
2018-02-24T16:05:41.635Z,21.70
2018-02-24T16:08:10.034Z,19.83
2018-02-24T16:10:38.214Z,20.77
2018-02-24T16:13:06.366Z,19.87
2018-02-24T16:15:34.615Z,21.48
2018-02-24T16:18:02.776Z,19.65
2018-02-24T16:20:31.800Z,19.35
2018-02-24T16:22:59.972Z,16.85
2018-02-24T16:25:28.103Z,20.42
2018-02-24T16:27:57.008Z,18.48
2018-02-24T16:30:25.155Z,20.50
2018-02-24T16:32:54.118Z,18.70
2018-02-24T16:35:22.247Z,19.48
2018-02-24T16:37:50.412Z,18.52
2018-02-24T16:40:18.557Z,20.33
2018-02-24T16:42:47.485Z,21.05
2018-02-24T16:45:15.650Z,17.15
2018-02-24T16:47:44.583Z,17.75
2018-02-24T16:50:12.715Z,19.30
2018-02-24T16:52:40.850Z,25.65
2018-02-24T16:55:09.022Z,17.83
2018-02-24T16:57:37.134Z,19.33
2018-02-24T17:00:05.313Z,20.45
2018-02-24T17:02:33.434Z,17.15
2018-02-24T17:05:02.358Z,19.60
2018-02-24T17:07:30.528Z,19.45
2018-02-24T17:09:58.641Z,21.83
2018-02-24T17:12:26.834Z,16.20
2018-02-24T17:14:54.987Z,14.63
2018-02-24T17:17:23.156Z,18.73
2018-02-24T17:19:51.312Z,13.77
2018-02-24T17:22:19.553Z,15.68
2018-02-24T17:24:47.719Z,16.70
2018-02-24T17:27:16.652Z,16.35
2018-02-24T17:29:44.925Z,19.48
2018-02-24T17:32:13.084Z,20.00
2018-02-24T17:34:41.242Z,16.10
2018-02-24T17:37:09.392Z,20.83
2018-02-24T17:39:38.329Z,16.98
2018-02-24T17:42:06.503Z,16.85
2018-02-24T17:44:34.694Z,24.52
2018-02-24T17:47:02.926Z,18.50
2018-02-24T17:49:31.094Z,17.45
2018-02-24T17:51:59.282Z,18.60
2018-02-24T17:54:27.556Z,14.07
2018-02-24T17:56:55.718Z,17.65
2018-02-24T17:59:23.940Z,19.60
2018-02-24T18:01:53.644Z,19.37
2018-02-24T18:04:21.795Z,20.35
2018-02-24T18:06:50.044Z,18.25
2018-02-24T18:09:18.189Z,21.33
2018-02-24T18:11:47.147Z,21.70
2018-02-24T18:14:15.458Z,17.30
2018-02-24T18:16:43.610Z,25.17
2018-02-24T18:19:11.818Z,20.62
2018-02-24T18:21:39.974Z,22.77
2018-02-24T18:24:08.949Z,19.10
2018-02-24T18:26:37.106Z,21.48
2018-02-24T18:29:05.249Z,17.80
2018-02-24T18:31:33.885Z,20.67
2018-02-24T18:34:02.802Z,21.95
2018-02-24T18:36:30.995Z,21.50
2018-02-24T18:38:59.183Z,20.35
2018-02-24T18:41:27.397Z,23.15
2018-02-24T18:43:55.579Z,23.92
2018-02-24T18:46:23.750Z,22.77
2018-02-24T18:48:52.127Z,29.63
2018-02-24T18:51:20.303Z,25.95
2018-02-24T18:53:48.489Z,25.15
2018-02-24T18:56:16.632Z,19.80
2018-02-24T18:58:44.852Z,29.15
2018-02-24T19:01:13.016Z,24.90
2018-02-24T19:03:41.191Z,26.15
2018-02-24T19:06:09.600Z,27.27
2018-02-24T19:08:37.752Z,24.90
2018-02-24T19:11:06.002Z,25.15
2018-02-24T19:13:34.165Z,24.20
2018-02-24T19:16:02.379Z,18.95
2018-02-24T19:18:30.562Z,28.25
2018-02-24T19:20:59.607Z,30.15
2018-02-24T19:23:27.796Z,25.05
2018-02-24T19:25:55.954Z,26.20
2018-02-24T19:28:24.234Z,22.33
2018-02-24T19:30:52.392Z,23.23
2018-02-24T19:33:20.572Z,23.00
2018-02-24T19:35:48.762Z,22.45
2018-02-24T19:38:16.937Z,25.17
2018-02-24T19:40:45.113Z,24.50
2018-02-24T19:43:13.262Z,19.08
2018-02-24T19:45:41.433Z,21.52
2018-02-24T19:48:09.579Z,22.48
2018-02-24T19:50:38.508Z,23.10
2018-02-24T19:53:06.683Z,19.37
2018-02-24T19:55:34.885Z,21.25
2018-02-24T19:58:03.059Z,21.15
2018-02-24T20:00:31.248Z,20.27
2018-02-24T20:02:59.458Z,21.10
2018-02-24T20:05:27.670Z,20.17
2018-02-24T20:07:55.872Z,21.95
2018-02-24T20:10:24.784Z,20.40
2018-02-24T20:12:52.933Z,18.50
2018-02-24T20:15:21.876Z,22.48
2018-02-24T20:17:50.021Z,14.90
2018-02-24T20:20:18.174Z,19.33
2018-02-24T20:22:47.142Z,19.37
2018-02-24T20:25:15.328Z,18.23
2018-02-24T20:27:44.910Z,22.25
2018-02-24T20:30:13.108Z,17.92
2018-02-24T20:32:41.238Z,16.92
2018-02-24T20:35:09.489Z,15.35
2018-02-24T20:37:37.631Z,14.55
2018-02-24T20:40:06.859Z,13.82
2018-02-24T20:42:34.986Z,14.18
2018-02-24T20:45:03.948Z,16.60
2018-02-24T20:47:32.842Z,14.98
2018-02-24T20:50:00.960Z,14.85
2018-02-24T20:52:29.185Z,17.58
2018-02-24T20:54:57.575Z,15.25
2018-02-24T20:57:27.241Z,14.82
2018-02-24T20:59:55.580Z,13.55
2018-02-24T21:02:24.603Z,16.05
2018-02-24T21:04:52.840Z,12.88
2018-02-24T21:07:21.792Z,22.85
2018-02-24T21:09:49.998Z,12.55
2018-02-24T21:12:18.948Z,13.62
2018-02-24T21:14:47.197Z,13.62
2018-02-24T21:17:15.387Z,17.02
2018-02-24T21:19:43.656Z,17.92
2018-02-24T21:22:11.829Z,14.25
2018-02-24T21:24:40.200Z,17.58
2018-02-24T21:27:08.368Z,11.00
2018-02-24T21:29:36.570Z,15.90
2018-02-24T21:32:04.715Z,13.73
2018-02-24T21:34:32.892Z,12.75
2018-02-24T21:37:01.168Z,14.55
2018-02-24T21:39:29.319Z,11.75
2018-02-24T21:41:57.456Z,14.87
2018-02-24T21:44:25.634Z,13.35
2018-02-24T21:46:54.556Z,13.85
2018-02-24T21:49:22.706Z,17.17
2018-02-24T21:51:50.947Z,13.60
2018-02-24T21:54:19.103Z,15.38
2018-02-24T21:56:47.293Z,15.35
2018-02-24T21:59:15.553Z,12.75
2018-02-24T22:01:43.713Z,12.02
2018-02-24T22:04:11.888Z,14.10
2018-02-24T22:06:40.052Z,14.13
2018-02-24T22:09:08.200Z,10.82
2018-02-24T22:11:36.403Z,10.02
2018-02-24T22:14:04.562Z,11.18
2018-02-24T22:16:32.710Z,10.38
2018-02-24T22:19:00.903Z,15.13
2018-02-24T22:21:29.116Z,12.88
2018-02-24T22:23:57.355Z,14.07
2018-02-24T22:26:25.542Z,10.93
2018-02-24T22:28:54.401Z,10.57
2018-02-24T22:31:22.546Z,9.23
2018-02-24T22:33:50.697Z,13.62
2018-02-24T22:36:19.739Z,9.20
2018-02-24T22:38:47.882Z,11.65
2018-02-24T22:41:16.109Z,11.18
2018-02-24T22:43:44.259Z,11.77
2018-02-24T22:46:12.391Z,9.35
2018-02-24T22:48:46.171Z,9.68
2018-02-24T22:51:14.340Z,14.55
2018-02-24T22:53:42.461Z,9.32
2018-02-24T22:56:10.631Z,10.98
2018-02-24T22:58:38.759Z,10.43
2018-02-24T23:01:06.908Z,9.85
2018-02-24T23:03:35.046Z,7.00
2018-02-24T23:06:03.209Z,9.63
2018-02-24T23:08:31.345Z,9.35
2018-02-24T23:10:59.529Z,7.43
2018-02-24T23:13:29.179Z,7.78
2018-02-24T23:15:57.384Z,7.97
2018-02-24T23:18:25.511Z,7.80
2018-02-24T23:20:54.413Z,9.10
2018-02-24T23:23:22.540Z,8.73
2018-02-24T23:25:51.459Z,7.20
2018-02-24T23:28:19.623Z,9.68
2018-02-24T23:30:48.533Z,9.48
2018-02-24T23:33:16.674Z,7.20
2018-02-24T23:35:45.614Z,6.75
2018-02-24T23:38:13.733Z,9.20
2018-02-24T23:40:41.889Z,6.10
2018-02-24T23:43:10.022Z,8.27
2018-02-24T23:45:38.152Z,8.57
2018-02-24T23:48:07.085Z,6.30
2018-02-24T23:50:35.197Z,9.35
2018-02-24T23:53:03.358Z,5.87
2018-02-24T23:55:31.781Z,6.90
2018-02-24T23:58:00.668Z,8.32
